sensor_id;sensor_type;location;lat;lon;timestamp;pressure;altitude;pressure_sealevel;temperature;humidity
79645;BME280;69117;47.148;18.954;2023-12-28T00:00:58;101368.09;;;2.04;100.00
79645;BME280;69117;47.148;18.954;2023-12-28T00:04:00;101370.06;;;2.19;100.00
79645;BME280;69117;47.148;18.954;2023-12-28T00:07:02;101357.91;;;2.39;100.00
79645;BME280;69117;47.148;18.954;2023-12-28T00:10:05;101373.94;;;2.50;100.00
79645;BME280;69117;47.148;18.954;2023-12-28T00:13:07;101376.09;;;2.61;100.00
79645;BME280;69117;47.148;18.954;2023-12-28T00:16:08;101370.59;;;2.67;100.00
79645;BME280;69117;47.148;18.954;2023-12-28T00:19:10;101364.41;;;2.69;100.00
79645;BME280;69117;47.148;18.954;2023-12-28T00:22:12;101362.28;;;2.78;100.00
79645;BME280;69117;47.148;18.954;2023-12-28T00:25:14;101370.59;;;2.86;100.00
79645;BME280;69117;47.148;18.954;2023-12-28T00:28:15;101377.66;;;2.84;100.00
79645;BME280;69117;47.148;18.954;2023-12-28T00:31:17;101395.78;;;2.87;100.00
79645;BME280;69117;47.148;18.954;2023-12-28T00:34:19;101387.19;;;2.85;100.00
79645;BME280;69117;47.148;18.954;2023-12-28T00:37:22;101383.56;;;2.87;100.00
79645;BME280;69117;47.148;18.954;2023-12-28T00:40:24;101383.94;;;2.98;100.00
79645;BME280;69117;47.148;18.954;2023-12-28T00:43:26;101384.88;;;2.97;100.00
79645;BME280;69117;47.148;18.954;2023-12-28T00:46:28;101375.97;;;3.02;100.00
79645;BME280;69117;47.148;18.954;2023-12-28T00:49:29;101383.44;;;2.90;100.00
79645;BME280;69117;47.148;18.954;2023-12-28T00:52:31;101373.31;;;3.03;100.00
79645;BME280;69117;47.148;18.954;2023-12-28T00:55:33;101370.31;;;2.92;100.00
79645;BME280;69117;47.148;18.954;2023-12-28T00:58:34;101380.47;;;2.98;100.00
79645;BME280;69117;47.148;18.954;2023-12-28T01:01:36;101367.06;;;2.87;100.00
79645;BME280;69117;47.148;18.954;2023-12-28T01:04:38;101368.78;;;2.88;100.00
79645;BME280;69117;47.148;18.954;2023-12-28T01:07:40;101365.09;;;2.92;100.00
79645;BME280;69117;47.148;18.954;2023-12-28T01:10:42;101379.63;;;2.97;100.00
79645;BME280;69117;47.148;18.954;2023-12-28T01:13:43;101381.56;;;2.94;100.00
79645;BME280;69117;47.148;18.954;2023-12-28T01:16:45;101377.31;;;2.91;100.00
79645;BME280;69117;47.148;18.954;2023-12-28T01:19:46;101382.38;;;2.94;100.00
79645;BME280;69117;47.148;18.954;2023-12-28T01:22:48;101379.22;;;2.88;100.00
79645;BME280;69117;47.148;18.954;2023-12-28T01:25:51;101378.16;;;2.92;100.00
79645;BME280;69117;47.148;18.954;2023-12-28T01:28:53;101381.03;;;2.86;100.00
79645;BME280;69117;47.148;18.954;2023-12-28T01:31:54;101359.88;;;2.73;100.00
79645;BME280;69117;47.148;18.954;2023-12-28T01:34:56;101370.78;;;2.81;100.00
79645;BME280;69117;47.148;18.954;2023-12-28T01:37:58;101374.47;;;2.77;100.00
79645;BME280;69117;47.148;18.954;2023-12-28T01:41:02;101360.16;;;2.67;100.00
79645;BME280;69117;47.148;18.954;2023-12-28T01:44:03;101365.16;;;2.71;100.00
79645;BME280;69117;47.148;18.954;2023-12-28T01:47:05;101349.69;;;2.48;100.00
79645;BME280;69117;47.148;18.954;2023-12-28T01:50:08;101355.91;;;2.45;100.00
79645;BME280;69117;47.148;18.954;2023-12-28T01:53:10;101373.88;;;2.51;100.00
79645;BME280;69117;47.148;18.954;2023-12-28T01:56:12;101372.25;;;2.49;100.00
79645;BME280;69117;47.148;18.954;2023-12-28T01:59:14;101347.69;;;2.34;100.00
79645;BME280;69117;47.148;18.954;2023-12-28T02:02:16;101365.47;;;2.45;100.00
79645;BME280;69117;47.148;18.954;2023-12-28T02:05:18;101346.00;;;2.33;100.00
79645;BME280;69117;47.148;18.954;2023-12-28T02:08:20;101323.72;;;2.26;100.00
79645;BME280;69117;47.148;18.954;2023-12-28T02:11:22;101342.41;;;2.36;100.00
79645;BME280;69117;47.148;18.954;2023-12-28T02:14:24;101337.31;;;2.33;100.00
79645;BME280;69117;47.148;18.954;2023-12-28T02:17:32;101336.06;;;2.41;100.00
79645;BME280;69117;47.148;18.954;2023-12-28T02:20:36;101344.72;;;2.42;100.00
79645;BME280;69117;47.148;18.954;2023-12-28T02:23:38;101340.56;;;2.38;100.00
79645;BME280;69117;47.148;18.954;2023-12-28T02:26:39;101334.38;;;2.40;100.00
79645;BME280;69117;47.148;18.954;2023-12-28T02:29:41;101331.91;;;2.37;100.00
79645;BME280;69117;47.148;18.954;2023-12-28T02:32:54;101339.91;;;2.33;100.00
79645;BME280;69117;47.148;18.954;2023-12-28T02:36:02;101326.31;;;2.26;100.00
79645;BME280;69117;47.148;18.954;2023-12-28T02:39:07;101323.38;;;2.34;100.00
79645;BME280;69117;47.148;18.954;2023-12-28T02:42:11;101310.97;;;2.39;100.00
79645;BME280;69117;47.148;18.954;2023-12-28T02:45:12;101303.91;;;2.61;100.00
79645;BME280;69117;47.148;18.954;2023-12-28T02:48:14;101294.50;;;2.57;100.00
79645;BME280;69117;47.148;18.954;2023-12-28T02:51:16;101315.22;;;2.60;100.00
79645;BME280;69117;47.148;18.954;2023-12-28T02:54:18;101305.84;;;2.56;100.00
79645;BME280;69117;47.148;18.954;2023-12-28T02:57:26;101305.84;;;2.56;100.00
79645;BME280;69117;47.148;18.954;2023-12-28T03:00:28;101295.44;;;2.56;100.00
79645;BME280;69117;47.148;18.954;2023-12-28T03:03:30;101305.38;;;2.67;100.00
79645;BME280;69117;47.148;18.954;2023-12-28T03:06:32;101305.44;;;2.65;100.00
79645;BME280;69117;47.148;18.954;2023-12-28T03:09:34;101302.28;;;2.59;100.00
79645;BME280;69117;47.148;18.954;2023-12-28T03:12:36;101303.06;;;2.61;100.00
79645;BME280;69117;47.148;18.954;2023-12-28T03:15:37;101301.56;;;2.55;100.00
79645;BME280;69117;47.148;18.954;2023-12-28T03:18:39;101293.47;;;2.61;100.00
79645;BME280;69117;47.148;18.954;2023-12-28T03:21:41;101284.47;;;2.48;100.00
79645;BME280;69117;47.148;18.954;2023-12-28T03:24:43;101275.13;;;2.44;100.00
79645;BME280;69117;47.148;18.954;2023-12-28T03:27:45;101272.38;;;2.47;100.00
79645;BME280;69117;47.148;18.954;2023-12-28T03:30:47;101271.94;;;2.37;100.00
79645;BME280;69117;47.148;18.954;2023-12-28T03:33:49;101259.06;;;2.34;100.00
79645;BME280;69117;47.148;18.954;2023-12-28T03:36:51;101251.97;;;2.17;100.00
79645;BME280;69117;47.148;18.954;2023-12-28T03:39:53;101271.66;;;2.24;100.00
79645;BME280;69117;47.148;18.954;2023-12-28T03:42:55;101273.66;;;2.18;100.00
79645;BME280;69117;47.148;18.954;2023-12-28T03:45:56;101269.63;;;2.31;100.00
79645;BME280;69117;47.148;18.954;2023-12-28T03:48:58;101262.72;;;2.30;100.00
79645;BME280;69117;47.148;18.954;2023-12-28T03:52:00;101255.09;;;2.25;100.00
79645;BME280;69117;47.148;18.954;2023-12-28T03:55:02;101257.66;;;2.27;100.00
79645;BME280;69117;47.148;18.954;2023-12-28T03:58:04;101230.50;;;2.12;100.00
79645;BME280;69117;47.148;18.954;2023-12-28T04:01:06;101246.41;;;2.06;100.00
79645;BME280;69117;47.148;18.954;2023-12-28T04:04:10;101248.28;;;2.02;100.00
79645;BME280;69117;47.148;18.954;2023-12-28T04:07:12;101254.69;;;1.95;100.00
79645;BME280;69117;47.148;18.954;2023-12-28T04:10:28;101251.00;;;1.80;100.00
79645;BME280;69117;47.148;18.954;2023-12-28T04:13:30;101249.19;;;1.82;100.00
79645;BME280;69117;47.148;18.954;2023-12-28T04:16:31;101257.44;;;1.92;100.00
79645;BME280;69117;47.148;18.954;2023-12-28T04:19:33;101252.22;;;1.92;100.00
79645;BME280;69117;47.148;18.954;2023-12-28T04:22:35;101238.63;;;1.86;100.00
79645;BME280;69117;47.148;18.954;2023-12-28T04:25:36;101258.13;;;1.96;100.00
79645;BME280;69117;47.148;18.954;2023-12-28T04:28:39;101253.75;;;1.96;100.00
79645;BME280;69117;47.148;18.954;2023-12-28T04:31:41;101224.28;;;1.75;100.00
79645;BME280;69117;47.148;18.954;2023-12-28T04:34:43;101238.94;;;1.78;100.00
79645;BME280;69117;47.148;18.954;2023-12-28T04:37:45;101235.34;;;1.80;100.00
79645;BME280;69117;47.148;18.954;2023-12-28T04:40:47;101210.41;;;1.75;100.00
79645;BME280;69117;47.148;18.954;2023-12-28T04:43:48;101223.72;;;1.69;100.00
79645;BME280;69117;47.148;18.954;2023-12-28T04:46:50;101221.75;;;1.74;100.00
79645;BME280;69117;47.148;18.954;2023-12-28T04:49:51;101214.03;;;1.52;100.00
79645;BME280;69117;47.148;18.954;2023-12-28T04:52:53;101229.97;;;1.65;100.00
79645;BME280;69117;47.148;18.954;2023-12-28T04:55:55;101219.16;;;1.53;100.00
79645;BME280;69117;47.148;18.954;2023-12-28T04:58:57;101240.66;;;1.58;100.00
79645;BME280;69117;47.148;18.954;2023-12-28T05:01:59;101232.25;;;1.52;100.00
79645;BME280;69117;47.148;18.954;2023-12-28T05:05:00;101231.88;;;1.61;100.00
79645;BME280;69117;47.148;18.954;2023-12-28T05:08:02;101224.69;;;1.66;100.00
79645;BME280;69117;47.148;18.954;2023-12-28T05:11:05;101214.34;;;1.65;100.00
79645;BME280;69117;47.148;18.954;2023-12-28T05:14:07;101227.16;;;1.69;100.00
79645;BME280;69117;47.148;18.954;2023-12-28T05:17:11;101222.59;;;1.54;100.00
79645;BME280;69117;47.148;18.954;2023-12-28T05:20:13;101223.78;;;1.47;100.00
79645;BME280;69117;47.148;18.954;2023-12-28T05:23:15;101230.38;;;1.55;100.00
79645;BME280;69117;47.148;18.954;2023-12-28T05:26:16;101224.81;;;1.63;100.00
79645;BME280;69117;47.148;18.954;2023-12-28T05:29:21;101220.00;;;1.54;100.00
79645;BME280;69117;47.148;18.954;2023-12-28T05:32:22;101215.78;;;1.51;100.00
79645;BME280;69117;47.148;18.954;2023-12-28T05:35:24;101217.22;;;1.58;100.00
79645;BME280;69117;47.148;18.954;2023-12-28T05:38:26;101216.50;;;1.55;100.00
79645;BME280;69117;47.148;18.954;2023-12-28T05:41:27;101215.59;;;1.56;100.00
79645;BME280;69117;47.148;18.954;2023-12-28T05:44:29;101233.00;;;1.54;100.00
79645;BME280;69117;47.148;18.954;2023-12-28T05:47:34;101227.34;;;1.44;100.00
79645;BME280;69117;47.148;18.954;2023-12-28T05:50:36;101216.63;;;1.31;100.00
79645;BME280;69117;47.148;18.954;2023-12-28T05:53:37;101191.78;;;1.24;100.00
79645;BME280;69117;47.148;18.954;2023-12-28T05:56:39;101217.84;;;1.23;100.00
79645;BME280;69117;47.148;18.954;2023-12-28T05:59:41;101219.06;;;1.14;100.00
79645;BME280;69117;47.148;18.954;2023-12-28T06:02:42;101228.16;;;1.04;100.00
79645;BME280;69117;47.148;18.954;2023-12-28T06:05:44;101234.97;;;0.84;100.00
79645;BME280;69117;47.148;18.954;2023-12-28T06:08:46;101233.28;;;0.61;100.00
79645;BME280;69117;47.148;18.954;2023-12-28T06:11:47;101222.66;;;0.45;100.00
79645;BME280;69117;47.148;18.954;2023-12-28T06:14:49;101221.97;;;0.40;100.00
79645;BME280;69117;47.148;18.954;2023-12-28T06:17:51;101230.09;;;0.31;100.00
79645;BME280;69117;47.148;18.954;2023-12-28T06:20:53;101234.63;;;0.26;100.00
79645;BME280;69117;47.148;18.954;2023-12-28T06:23:55;101229.94;;;0.12;100.00
79645;BME280;69117;47.148;18.954;2023-12-28T06:26:57;101230.16;;;0.06;100.00
79645;BME280;69117;47.148;18.954;2023-12-28T06:29:58;101231.25;;;-0.01;100.00
79645;BME280;69117;47.148;18.954;2023-12-28T06:33:01;101234.03;;;-0.06;100.00
79645;BME280;69117;47.148;18.954;2023-12-28T06:36:06;101227.34;;;-0.13;100.00
79645;BME280;69117;47.148;18.954;2023-12-28T06:39:08;101232.81;;;0.05;100.00
79645;BME280;69117;47.148;18.954;2023-12-28T06:42:10;101227.38;;;0.34;100.00
79645;BME280;69117;47.148;18.954;2023-12-28T06:45:11;101213.94;;;0.68;100.00
79645;BME280;69117;47.148;18.954;2023-12-28T06:48:13;101227.75;;;0.71;100.00
79645;BME280;69117;47.148;18.954;2023-12-28T06:51:19;101219.72;;;0.53;100.00
79645;BME280;69117;47.148;18.954;2023-12-28T06:54:21;101236.41;;;0.69;100.00
79645;BME280;69117;47.148;18.954;2023-12-28T06:57:23;101240.41;;;0.78;100.00
79645;BME280;69117;47.148;18.954;2023-12-28T07:00:25;101247.94;;;1.08;100.00
79645;BME280;69117;47.148;18.954;2023-12-28T07:03:26;101245.63;;;1.22;100.00
79645;BME280;69117;47.148;18.954;2023-12-28T07:06:32;101240.88;;;1.32;100.00
79645;BME280;69117;47.148;18.954;2023-12-28T07:09:33;101248.69;;;1.32;100.00
79645;BME280;69117;47.148;18.954;2023-12-28T07:12:35;101263.00;;;1.42;100.00
79645;BME280;69117;47.148;18.954;2023-12-28T07:15:37;101259.44;;;1.65;100.00
79645;BME280;69117;47.148;18.954;2023-12-28T07:18:38;101261.53;;;1.77;100.00
79645;BME280;69117;47.148;18.954;2023-12-28T07:21:40;101250.06;;;1.81;100.00
79645;BME280;69117;47.148;18.954;2023-12-28T07:24:43;101268.69;;;2.13;100.00
79645;BME280;69117;47.148;18.954;2023-12-28T07:27:44;101263.56;;;2.31;100.00
79645;BME280;69117;47.148;18.954;2023-12-28T07:30:46;101260.75;;;2.35;100.00
79645;BME280;69117;47.148;18.954;2023-12-28T07:33:48;101275.53;;;2.53;100.00
79645;BME280;69117;47.148;18.954;2023-12-28T07:36:50;101272.78;;;2.57;100.00
79645;BME280;69117;47.148;18.954;2023-12-28T07:39:52;101268.63;;;2.71;100.00
79645;BME280;69117;47.148;18.954;2023-12-28T07:42:53;101258.19;;;2.71;100.00
79645;BME280;69117;47.148;18.954;2023-12-28T07:45:59;101267.91;;;2.87;100.00
79645;BME280;69117;47.148;18.954;2023-12-28T07:49:01;101281.47;;;2.95;100.00
79645;BME280;69117;47.148;18.954;2023-12-28T07:52:03;101274.47;;;2.95;100.00
79645;BME280;69117;47.148;18.954;2023-12-28T07:55:05;101272.56;;;2.99;100.00
79645;BME280;69117;47.148;18.954;2023-12-28T07:58:07;101267.91;;;2.87;100.00
79645;BME280;69117;47.148;18.954;2023-12-28T08:01:11;101295.16;;;3.00;100.00
79645;BME280;69117;47.148;18.954;2023-12-28T08:04:13;101295.69;;;3.07;100.00
79645;BME280;69117;47.148;18.954;2023-12-28T08:07:15;101285.09;;;3.10;100.00
79645;BME280;69117;47.148;18.954;2023-12-28T08:10:17;101291.72;;;3.17;100.00
79645;BME280;69117;47.148;18.954;2023-12-28T08:13:18;101272.13;;;3.08;100.00
79645;BME280;69117;47.148;18.954;2023-12-28T08:16:22;101281.50;;;3.12;100.00
79645;BME280;69117;47.148;18.954;2023-12-28T08:19:24;101293.19;;;3.22;100.00
79645;BME280;69117;47.148;18.954;2023-12-28T08:22:26;101301.56;;;3.29;100.00
79645;BME280;69117;47.148;18.954;2023-12-28T08:25:29;101299.38;;;3.39;100.00
79645;BME280;69117;47.148;18.954;2023-12-28T08:28:31;101286.47;;;3.53;100.00
79645;BME280;69117;47.148;18.954;2023-12-28T08:31:33;101296.56;;;3.78;100.00
79645;BME280;69117;47.148;18.954;2023-12-28T08:34:35;101308.13;;;4.07;100.00
79645;BME280;69117;47.148;18.954;2023-12-28T08:37:37;101309.09;;;4.22;100.00
79645;BME280;69117;47.148;18.954;2023-12-28T08:40:38;101303.91;;;4.38;100.00
79645;BME280;69117;47.148;18.954;2023-12-28T08:43:40;101309.28;;;4.68;100.00
79645;BME280;69117;47.148;18.954;2023-12-28T08:46:42;101313.84;;;4.80;100.00
79645;BME280;69117;47.148;18.954;2023-12-28T08:49:46;101323.41;;;4.81;100.00
79645;BME280;69117;47.148;18.954;2023-12-28T08:52:48;101320.78;;;4.97;100.00
79645;BME280;69117;47.148;18.954;2023-12-28T08:55:56;101317.81;;;5.19;100.00
79645;BME280;69117;47.148;18.954;2023-12-28T08:58:57;101307.16;;;5.22;100.00
79645;BME280;69117;47.148;18.954;2023-12-28T09:01:59;101307.13;;;5.38;100.00
79645;BME280;69117;47.148;18.954;2023-12-28T09:05:09;101308.03;;;5.53;100.00
79645;BME280;69117;47.148;18.954;2023-12-28T09:08:11;101303.69;;;5.68;100.00
79645;BME280;69117;47.148;18.954;2023-12-28T09:11:13;101304.69;;;5.81;100.00
79645;BME280;69117;47.148;18.954;2023-12-28T09:14:15;101305.56;;;5.96;100.00
79645;BME280;69117;47.148;18.954;2023-12-28T09:17:21;101313.44;;;6.10;100.00
79645;BME280;69117;47.148;18.954;2023-12-28T09:20:23;101300.38;;;6.39;100.00
79645;BME280;69117;47.148;18.954;2023-12-28T09:23:25;101290.97;;;6.49;100.00
79645;BME280;69117;47.148;18.954;2023-12-28T09:26:27;101305.13;;;6.61;100.00
79645;BME280;69117;47.148;18.954;2023-12-28T09:29:28;101303.41;;;6.74;100.00
79645;BME280;69117;47.148;18.954;2023-12-28T09:32:30;101289.31;;;6.89;100.00
79645;BME280;69117;47.148;18.954;2023-12-28T09:35:32;101292.47;;;7.09;100.00
79645;BME280;69117;47.148;18.954;2023-12-28T09:38:34;101290.84;;;7.21;100.00
79645;BME280;69117;47.148;18.954;2023-12-28T09:41:39;101279.31;;;7.36;100.00
79645;BME280;69117;47.148;18.954;2023-12-28T09:44:43;101284.13;;;7.56;100.00
79645;BME280;69117;47.148;18.954;2023-12-28T09:47:45;101272.94;;;7.53;100.00
79645;BME280;69117;47.148;18.954;2023-12-28T09:50:51;101270.78;;;7.72;100.00
79645;BME280;69117;47.148;18.954;2023-12-28T09:53:56;101257.72;;;7.71;100.00
79645;BME280;69117;47.148;18.954;2023-12-28T09:56:58;101248.38;;;7.92;100.00
79645;BME280;69117;47.148;18.954;2023-12-28T10:00:00;101232.06;;;8.13;100.00
79645;BME280;69117;47.148;18.954;2023-12-28T10:03:02;101245.94;;;7.89;100.00
79645;BME280;69117;47.148;18.954;2023-12-28T10:06:04;101248.06;;;7.97;100.00
79645;BME280;69117;47.148;18.954;2023-12-28T10:09:06;101222.47;;;8.24;100.00
79645;BME280;69117;47.148;18.954;2023-12-28T10:12:09;101229.63;;;8.35;100.00
79645;BME280;69117;47.148;18.954;2023-12-28T10:15:11;101217.22;;;8.12;100.00
79645;BME280;69117;47.148;18.954;2023-12-28T10:18:12;101219.25;;;8.58;100.00
79645;BME280;69117;47.148;18.954;2023-12-28T10:21:14;101224.44;;;8.34;100.00
79645;BME280;69117;47.148;18.954;2023-12-28T10:24:16;101212.38;;;8.18;100.00
79645;BME280;69117;47.148;18.954;2023-12-28T10:27:18;101202.47;;;8.09;100.00
79645;BME280;69117;47.148;18.954;2023-12-28T10:30:21;101176.16;;;8.09;100.00
79645;BME280;69117;47.148;18.954;2023-12-28T10:33:23;101177.63;;;8.13;100.00
79645;BME280;69117;47.148;18.954;2023-12-28T10:36:26;101168.97;;;8.24;100.00
79645;BME280;69117;47.148;18.954;2023-12-28T10:39:31;101177.41;;;8.29;100.00
79645;BME280;69117;47.148;18.954;2023-12-28T10:42:56;101162.22;;;8.20;100.00
79645;BME280;69117;47.148;18.954;2023-12-28T10:46:01;101172.13;;;8.29;100.00
79645;BME280;69117;47.148;18.954;2023-12-28T10:49:15;101178.78;;;8.59;100.00
79645;BME280;69117;47.148;18.954;2023-12-28T10:52:18;101170.91;;;8.83;100.00
79645;BME280;69117;47.148;18.954;2023-12-28T10:59:24;101144.34;;;9.21;100.00
79645;BME280;69117;47.148;18.954;2023-12-28T11:01:59;101145.84;;;9.81;100.00
79645;BME280;69117;47.148;18.954;2023-12-28T11:05:04;101138.66;;;10.72;100.00
79645;BME280;69117;47.148;18.954;2023-12-28T11:08:08;101144.34;;;12.03;100.00
79645;BME280;69117;47.148;18.954;2023-12-28T11:11:11;101152.97;;;12.45;100.00
79645;BME280;69117;47.148;18.954;2023-12-28T11:14:16;101143.78;;;12.98;100.00
79645;BME280;69117;47.148;18.954;2023-12-28T11:17:19;101150.34;;;13.13;100.00
79645;BME280;69117;47.148;18.954;2023-12-28T11:20:22;101144.75;;;13.06;100.00
79645;BME280;69117;47.148;18.954;2023-12-28T11:23:24;101143.91;;;13.06;100.00
79645;BME280;69117;47.148;18.954;2023-12-28T11:26:26;101131.88;;;13.21;100.00
79645;BME280;69117;47.148;18.954;2023-12-28T11:29:30;101131.63;;;12.86;100.00
79645;BME280;69117;47.148;18.954;2023-12-28T11:32:38;101122.25;;;13.20;100.00
79645;BME280;69117;47.148;18.954;2023-12-28T11:35:40;101120.41;;;12.24;100.00
79645;BME280;69117;47.148;18.954;2023-12-28T11:38:42;101110.34;;;12.08;100.00
79645;BME280;69117;47.148;18.954;2023-12-28T11:41:44;101103.19;;;12.78;100.00
79645;BME280;69117;47.148;18.954;2023-12-28T11:44:46;101084.41;;;13.38;100.00
79645;BME280;69117;47.148;18.954;2023-12-28T11:48:01;101080.25;;;13.90;100.00
79645;BME280;69117;47.148;18.954;2023-12-28T11:51:03;101077.56;;;13.72;100.00
79645;BME280;69117;47.148;18.954;2023-12-28T11:54:06;101076.94;;;12.75;100.00
79645;BME280;69117;47.148;18.954;2023-12-28T11:57:08;101089.84;;;12.10;100.00
79645;BME280;69117;47.148;18.954;2023-12-28T12:00:12;101087.84;;;12.72;100.00
79645;BME280;69117;47.148;18.954;2023-12-28T12:03:14;101083.59;;;13.08;100.00
79645;BME280;69117;47.148;18.954;2023-12-28T12:06:16;101093.25;;;12.99;100.00
79645;BME280;69117;47.148;18.954;2023-12-28T12:09:18;101080.91;;;11.70;100.00
79645;BME280;69117;47.148;18.954;2023-12-28T12:12:25;101098.06;;;12.07;100.00
79645;BME280;69117;47.148;18.954;2023-12-28T12:15:26;101079.31;;;12.78;100.00
79645;BME280;69117;47.148;18.954;2023-12-28T12:18:30;101078.91;;;13.49;100.00
79645;BME280;69117;47.148;18.954;2023-12-28T12:21:33;101051.63;;;13.10;100.00
79645;BME280;69117;47.148;18.954;2023-12-28T12:24:37;101067.41;;;12.92;100.00
79645;BME280;69117;47.148;18.954;2023-12-28T12:27:39;101071.75;;;13.02;100.00
79645;BME280;69117;47.148;18.954;2023-12-28T12:30:49;101070.84;;;13.31;100.00
79645;BME280;69117;47.148;18.954;2023-12-28T12:33:51;101071.19;;;13.09;100.00
79645;BME280;69117;47.148;18.954;2023-12-28T12:36:54;101067.63;;;13.74;100.00
79645;BME280;69117;47.148;18.954;2023-12-28T12:39:56;101060.41;;;13.29;100.00
79645;BME280;69117;47.148;18.954;2023-12-28T12:42:59;101052.47;;;13.00;100.00
79645;BME280;69117;47.148;18.954;2023-12-28T12:46:04;101050.09;;;13.82;100.00
79645;BME280;69117;47.148;18.954;2023-12-28T12:49:06;101052.44;;;13.20;100.00
79645;BME280;69117;47.148;18.954;2023-12-28T12:52:09;101055.06;;;13.94;100.00
79645;BME280;69117;47.148;18.954;2023-12-28T12:55:14;101039.28;;;13.38;100.00
79645;BME280;69117;47.148;18.954;2023-12-28T12:58:16;101040.88;;;14.04;100.00
79645;BME280;69117;47.148;18.954;2023-12-28T13:01:18;101034.84;;;14.47;100.00
79645;BME280;69117;47.148;18.954;2023-12-28T13:04:20;101035.22;;;14.52;100.00
79645;BME280;69117;47.148;18.954;2023-12-28T13:07:23;101028.78;;;14.55;100.00
79645;BME280;69117;47.148;18.954;2023-12-28T13:10:25;101040.84;;;13.68;100.00
79645;BME280;69117;47.148;18.954;2023-12-28T13:13:27;101035.88;;;14.01;100.00
79645;BME280;69117;47.148;18.954;2023-12-28T13:16:29;101016.97;;;13.58;100.00
79645;BME280;69117;47.148;18.954;2023-12-28T13:19:30;101006.50;;;13.29;100.00
79645;BME280;69117;47.148;18.954;2023-12-28T13:22:33;101003.03;;;12.33;100.00
79645;BME280;69117;47.148;18.954;2023-12-28T13:25:35;101022.28;;;12.35;100.00
79645;BME280;69117;47.148;18.954;2023-12-28T13:28:37;101038.56;;;12.01;100.00
79645;BME280;69117;47.148;18.954;2023-12-28T13:31:39;101047.28;;;11.92;100.00
79645;BME280;69117;47.148;18.954;2023-12-28T13:34:41;101039.44;;;11.81;100.00
79645;BME280;69117;47.148;18.954;2023-12-28T13:37:43;101049.41;;;11.58;100.00
79645;BME280;69117;47.148;18.954;2023-12-28T13:40:44;101020.88;;;11.00;100.00
79645;BME280;69117;47.148;18.954;2023-12-28T13:43:46;101037.19;;;10.63;100.00
79645;BME280;69117;47.148;18.954;2023-12-28T13:46:47;101030.84;;;10.54;100.00
79645;BME280;69117;47.148;18.954;2023-12-28T13:49:50;101032.16;;;10.28;100.00
79645;BME280;69117;47.148;18.954;2023-12-28T13:52:52;101041.28;;;10.24;100.00
79645;BME280;69117;47.148;18.954;2023-12-28T13:55:54;101057.16;;;10.01;100.00
79645;BME280;69117;47.148;18.954;2023-12-28T13:58:56;101060.34;;;9.84;100.00
79645;BME280;69117;47.148;18.954;2023-12-28T14:01:57;101032.75;;;9.77;100.00
79645;BME280;69117;47.148;18.954;2023-12-28T14:05:02;101034.28;;;9.79;100.00
79645;BME280;69117;47.148;18.954;2023-12-28T14:08:04;101034.28;;;9.79;100.00
79645;BME280;69117;47.148;18.954;2023-12-28T14:11:06;101024.84;;;9.54;100.00
79645;BME280;69117;47.148;18.954;2023-12-28T14:14:09;101020.66;;;9.40;100.00
79645;BME280;69117;47.148;18.954;2023-12-28T14:17:10;101031.34;;;9.39;100.00
79645;BME280;69117;47.148;18.954;2023-12-28T14:20:13;101035.53;;;9.08;100.00
79645;BME280;69117;47.148;18.954;2023-12-28T14:23:17;101044.69;;;8.91;100.00
79645;BME280;69117;47.148;18.954;2023-12-28T14:26:21;101056.91;;;8.81;100.00
79645;BME280;69117;47.148;18.954;2023-12-28T14:29:23;101057.97;;;8.78;100.00
79645;BME280;69117;47.148;18.954;2023-12-28T14:32:25;101057.41;;;8.62;100.00
79645;BME280;69117;47.148;18.954;2023-12-28T14:35:27;101065.75;;;8.44;100.00
79645;BME280;69117;47.148;18.954;2023-12-28T14:38:29;101063.13;;;8.32;100.00
79645;BME280;69117;47.148;18.954;2023-12-28T14:41:34;101059.59;;;8.20;100.00
79645;BME280;69117;47.148;18.954;2023-12-28T14:44:36;101037.81;;;7.94;100.00
79645;BME280;69117;47.148;18.954;2023-12-28T14:47:38;101062.16;;;7.85;100.00
79645;BME280;69117;47.148;18.954;2023-12-28T14:50:39;101064.47;;;7.76;100.00
79645;BME280;69117;47.148;18.954;2023-12-28T14:53:41;101062.72;;;7.64;100.00
79645;BME280;69117;47.148;18.954;2023-12-28T14:56:43;101055.38;;;7.44;100.00
79645;BME280;69117;47.148;18.954;2023-12-28T14:59:55;101070.19;;;7.32;100.00
79645;BME280;69117;47.148;18.954;2023-12-28T15:02:56;101053.91;;;7.01;100.00
79645;BME280;69117;47.148;18.954;2023-12-28T15:05:58;101052.31;;;6.99;100.00
79645;BME280;69117;47.148;18.954;2023-12-28T15:09:00;101042.00;;;6.83;100.00
79645;BME280;69117;47.148;18.954;2023-12-28T15:12:02;101047.78;;;6.75;100.00
79645;BME280;69117;47.148;18.954;2023-12-28T15:15:04;101055.41;;;6.53;100.00
79645;BME280;69117;47.148;18.954;2023-12-28T15:18:07;101042.72;;;6.32;100.00
79645;BME280;69117;47.148;18.954;2023-12-28T15:21:09;101059.81;;;6.25;100.00
79645;BME280;69117;47.148;18.954;2023-12-28T15:24:11;101053.78;;;6.10;100.00
79645;BME280;69117;47.148;18.954;2023-12-28T15:27:13;101054.66;;;5.96;100.00
79645;BME280;69117;47.148;18.954;2023-12-28T15:30:15;101050.38;;;5.81;100.00
79645;BME280;69117;47.148;18.954;2023-12-28T15:33:17;101057.28;;;5.68;100.00
79645;BME280;69117;47.148;18.954;2023-12-28T15:36:19;101044.19;;;5.54;100.00
79645;BME280;69117;47.148;18.954;2023-12-28T15:39:20;101030.94;;;5.42;100.00
79645;BME280;69117;47.148;18.954;2023-12-28T15:42:22;101028.31;;;5.28;100.00